createdAt,value
2023-05-01T00:01:08.249Z,9.03
2023-05-01T00:03:36.818Z,8.99
2023-05-01T00:06:05.794Z,8.96
2023-05-01T00:08:34.682Z,8.95
2023-05-01T00:11:09.745Z,8.87
2023-05-01T00:13:40.322Z,8.82
2023-05-01T00:16:09.788Z,8.81
2023-05-01T00:18:38.897Z,8.80
2023-05-01T00:21:21.554Z,8.74
2023-05-01T00:23:50.342Z,8.69
2023-05-01T00:26:18.810Z,8.68
2023-05-01T00:28:50.903Z,8.67
2023-05-01T00:31:21.286Z,8.60
2023-05-01T00:33:50.265Z,8.61
2023-05-01T00:36:18.901Z,8.63
2023-05-01T00:38:47.582Z,8.57
2023-05-01T00:41:16.559Z,8.51
2023-05-01T00:43:45.364Z,8.49
2023-05-01T00:46:15.237Z,8.37
2023-05-01T00:48:43.703Z,8.40
2023-05-01T00:51:13.802Z,8.41
2023-05-01T00:53:42.501Z,8.24
2023-05-01T00:56:12.056Z,8.15
2023-05-01T00:58:41.527Z,8.16
2023-05-01T01:01:10.086Z,8.07
2023-05-01T01:03:39.884Z,8.01
2023-05-01T01:06:10.562Z,8.00
2023-05-01T01:08:41.985Z,7.88
2023-05-01T01:11:15.284Z,7.78
2023-05-01T01:13:47.533Z,7.77
2023-05-01T01:16:21.279Z,7.70
2023-05-01T01:18:57.459Z,7.64
2023-05-01T01:21:33.032Z,7.58
2023-05-01T01:24:16.468Z,7.55
2023-05-01T01:27:02.354Z,7.51
2023-05-01T01:29:44.973Z,7.43
2023-05-01T01:32:28.596Z,7.41
2023-05-01T01:35:02.472Z,7.38
2023-05-01T01:37:35.224Z,7.39
2023-05-01T01:40:09.401Z,7.36
2023-05-01T01:42:40.079Z,7.35
2023-05-01T01:45:12.570Z,7.31
2023-05-01T01:47:42.611Z,7.28
2023-05-01T01:50:13.982Z,7.22
2023-05-01T01:52:46.271Z,7.24
2023-05-01T01:55:16.265Z,7.25
2023-05-01T01:57:46.886Z,7.23
2023-05-01T02:00:16.585Z,7.27
2023-05-01T02:02:45.843Z,7.34
2023-05-01T02:05:17.406Z,7.35
2023-05-01T02:07:48.143Z,7.59
2023-05-01T02:10:17.988Z,7.56
2023-05-01T02:12:48.117Z,7.62
2023-05-01T02:15:18.324Z,7.67
2023-05-01T02:17:47.171Z,7.72
2023-05-01T02:20:17.231Z,7.74
2023-05-01T02:22:47.356Z,7.78
2023-05-01T02:25:16.804Z,7.84
2023-05-01T02:27:48.042Z,7.88
2023-05-01T02:30:17.185Z,7.99
2023-05-01T02:32:45.674Z,8.02
2023-05-01T02:35:14.009Z,8.07
2023-05-01T02:37:44.302Z,8.15
2023-05-01T02:40:14.972Z,8.16
2023-05-01T02:42:43.653Z,8.20
2023-05-01T02:45:19.149Z,8.25
2023-05-01T02:47:49.923Z,8.27
2023-05-01T02:50:18.907Z,8.33
2023-05-01T02:52:49.217Z,8.48
2023-05-01T02:55:17.836Z,8.51
2023-05-01T02:57:46.400Z,8.46
2023-05-01T03:00:15.171Z,8.41
2023-05-01T03:02:43.476Z,8.39
2023-05-01T03:05:12.388Z,8.39
2023-05-01T03:07:40.971Z,8.41
2023-05-01T03:10:11.914Z,8.38
2023-05-01T03:12:40.352Z,8.36
2023-05-01T03:15:09.518Z,8.31
2023-05-01T03:17:37.921Z,8.29
2023-05-01T03:20:07.226Z,8.37
2023-05-01T03:22:36.097Z,8.41
2023-05-01T03:25:05.272Z,8.34
2023-05-01T03:27:34.977Z,8.29
2023-05-01T03:30:04.543Z,8.34
2023-05-01T03:32:32.786Z,8.32
2023-05-01T03:35:01.542Z,8.33
2023-05-01T03:37:30.255Z,8.31
2023-05-01T03:39:58.809Z,8.37
2023-05-01T03:42:27.493Z,8.38
2023-05-01T03:44:57.211Z,8.53
2023-05-01T03:47:25.549Z,8.60
2023-05-01T03:49:54.129Z,8.53
2023-05-01T03:52:22.940Z,8.53
2023-05-01T03:54:51.636Z,8.47
2023-05-01T03:57:20.772Z,8.58
2023-05-01T03:59:49.190Z,8.60
2023-05-01T04:02:19.102Z,8.47
2023-05-01T04:04:47.595Z,8.46
2023-05-01T04:07:16.182Z,8.40
2023-05-01T04:09:44.810Z,8.36
2023-05-01T04:12:13.309Z,8.36
2023-05-01T04:14:43.215Z,8.30
2023-05-01T04:17:11.674Z,8.38
2023-05-01T04:19:41.894Z,8.29
2023-05-01T04:22:10.415Z,8.30
2023-05-01T04:24:38.698Z,8.21
2023-05-01T04:27:07.270Z,8.21
2023-05-01T04:29:35.730Z,8.26
2023-05-01T04:32:04.372Z,8.23
2023-05-01T04:35:09.776Z,8.27
2023-05-01T04:37:38.152Z,8.40
2023-05-01T04:40:08.628Z,8.38
2023-05-01T04:42:39.328Z,8.38
2023-05-01T04:45:08.003Z,8.37
2023-05-01T04:47:36.461Z,8.40
2023-05-01T04:50:05.036Z,8.40
2023-05-01T04:52:35.682Z,8.53
2023-05-01T04:55:04.779Z,8.49
2023-05-01T04:57:33.029Z,8.48
2023-05-01T05:00:01.572Z,8.52
2023-05-01T05:02:30.967Z,8.63
2023-05-01T05:04:59.736Z,8.67
2023-05-01T05:07:28.346Z,8.79
2023-05-01T05:09:58.309Z,8.97
2023-05-01T05:12:26.827Z,9.04
2023-05-01T05:14:55.205Z,9.02
2023-05-01T05:17:23.613Z,9.06
2023-05-01T05:19:52.040Z,9.05
2023-05-01T05:22:20.532Z,9.16
2023-05-01T05:25:14.784Z,9.29
2023-05-01T05:27:44.933Z,9.40
2023-05-01T05:30:16.665Z,9.63
2023-05-01T05:32:45.538Z,9.67
2023-05-01T05:35:14.181Z,9.58
2023-05-01T05:37:43.989Z,9.64
2023-05-01T05:40:43.133Z,9.76
2023-05-01T05:43:12.902Z,9.75
2023-05-01T05:45:41.236Z,9.77
2023-05-01T05:48:09.600Z,9.91
2023-05-01T05:50:38.498Z,10.02
2023-05-01T05:53:07.041Z,10.07
2023-05-01T05:55:35.532Z,10.10
2023-05-01T05:58:03.970Z,10.21
2023-05-01T06:00:33.776Z,10.43
2023-05-01T06:03:02.645Z,10.69
2023-05-01T06:05:31.296Z,10.83
2023-05-01T06:07:59.655Z,10.97
2023-05-01T06:10:28.100Z,11.27
2023-05-01T06:13:03.625Z,11.49
2023-05-01T06:15:43.186Z,11.65
2023-05-01T06:18:12.411Z,11.78
2023-05-01T06:20:40.743Z,11.69
2023-05-01T06:23:09.977Z,11.92
2023-05-01T06:25:38.785Z,12.02
2023-05-01T06:28:07.443Z,11.70
2023-05-01T06:30:35.944Z,11.78
2023-05-01T06:33:05.898Z,11.74
2023-05-01T06:35:34.334Z,11.79
2023-05-01T06:38:03.580Z,11.48
2023-05-01T06:40:34.851Z,11.56
2023-05-01T06:43:03.647Z,11.87
2023-05-01T06:45:32.629Z,11.88
2023-05-01T06:48:00.966Z,12.00
2023-05-01T06:50:30.624Z,12.16
2023-05-01T06:53:00.877Z,12.16
2023-05-01T06:55:32.393Z,12.43
2023-05-01T06:58:06.956Z,12.68
2023-05-01T07:00:41.099Z,12.91
2023-05-01T07:03:10.042Z,13.03
2023-05-01T07:05:41.259Z,13.30
2023-05-01T07:08:10.539Z,13.56
2023-05-01T07:10:42.479Z,13.92
2023-05-01T07:13:10.998Z,14.22
2023-05-01T07:15:39.592Z,14.60
2023-05-01T07:18:08.126Z,15.09
2023-05-01T07:20:36.925Z,15.37
2023-05-01T07:23:07.523Z,15.38
2023-05-01T07:25:37.774Z,15.31
2023-05-01T07:28:08.009Z,15.87
2023-05-01T07:30:37.526Z,16.45
2023-05-01T07:33:30.132Z,16.89
2023-05-01T07:35:58.619Z,16.96
2023-05-01T07:38:28.707Z,17.31
2023-05-01T07:40:57.183Z,17.39
2023-05-01T07:43:25.608Z,17.04
2023-05-01T07:45:58.782Z,16.92
2023-05-01T07:48:27.802Z,16.76
2023-05-01T07:50:56.613Z,17.07
2023-05-01T07:53:25.104Z,17.72
2023-05-01T07:55:55.025Z,18.07
2023-05-01T07:58:23.611Z,18.88
2023-05-01T08:00:52.258Z,19.30
2023-05-01T08:03:20.723Z,19.83
2023-05-01T08:05:49.190Z,20.17
2023-05-01T08:08:20.683Z,20.22
2023-05-01T08:10:49.711Z,20.17
2023-05-01T08:13:20.303Z,19.93
2023-05-01T08:15:48.808Z,19.76
2023-05-01T08:18:20.956Z,19.77
2023-05-01T08:20:50.395Z,21.38
2023-05-01T08:23:18.900Z,22.09
2023-05-01T08:25:51.132Z,22.50
2023-05-01T08:28:21.696Z,22.64
2023-05-01T08:30:50.927Z,22.07
2023-05-01T08:33:19.854Z,21.81
2023-05-01T08:35:48.420Z,21.83
2023-05-01T08:38:17.025Z,22.91
2023-05-01T08:40:48.616Z,22.70
2023-05-01T08:43:17.482Z,24.31
2023-05-01T08:45:48.297Z,25.74
2023-05-01T08:48:18.645Z,26.94
2023-05-01T08:50:47.589Z,27.30
2023-05-01T08:53:17.817Z,27.51
2023-05-01T08:55:47.562Z,28.72
2023-05-01T08:58:18.553Z,28.02
2023-05-01T09:00:48.862Z,29.01
2023-05-01T09:03:17.854Z,29.48
2023-05-01T09:05:47.029Z,30.33
2023-05-01T09:08:15.656Z,30.11
2023-05-01T09:10:46.678Z,29.92
2023-05-01T09:13:15.111Z,29.62
2023-05-01T09:15:44.454Z,27.91
2023-05-01T09:18:14.939Z,28.90
2023-05-01T09:20:43.553Z,29.25
2023-05-01T09:23:12.865Z,30.88
2023-05-01T09:25:41.372Z,31.33
2023-05-01T09:28:09.943Z,31.45
2023-05-01T09:30:39.640Z,31.81
2023-05-01T09:33:09.039Z,33.83
2023-05-01T09:35:52.101Z,35.17
2023-05-01T09:38:21.659Z,35.97
2023-05-01T09:40:50.123Z,33.74
2023-05-01T09:43:25.715Z,34.27
2023-05-01T09:46:04.975Z,33.42
2023-05-01T09:48:35.655Z,30.86
2023-05-01T09:51:19.798Z,30.82
2023-05-01T09:53:50.264Z,31.88
2023-05-01T09:56:19.046Z,31.48
2023-05-01T09:58:47.981Z,32.47
2023-05-01T10:01:17.498Z,34.16
2023-05-01T10:03:47.249Z,35.46
2023-05-01T10:06:28.660Z,36.29
2023-05-01T10:08:59.028Z,36.88
2023-05-01T10:11:27.918Z,37.21
2023-05-01T10:14:07.534Z,36.81
2023-05-01T10:16:37.517Z,35.59
2023-05-01T10:19:06.860Z,34.98
2023-05-01T10:21:36.372Z,36.36
2023-05-01T10:24:08.326Z,37.32
2023-05-01T10:26:37.328Z,36.44
2023-05-01T10:29:06.142Z,37.50
2023-05-01T10:31:35.904Z,37.97
2023-05-01T10:34:04.786Z,36.47
2023-05-01T10:36:35.655Z,35.10
2023-05-01T10:39:06.139Z,34.11
2023-05-01T10:42:02.090Z,32.18
2023-05-01T10:44:30.842Z,31.89
2023-05-01T10:46:59.242Z,30.67
2023-05-01T10:49:50.805Z,30.96
2023-05-01T10:52:19.697Z,31.00
2023-05-01T10:54:49.684Z,30.85
2023-05-01T10:57:38.274Z,30.02
2023-05-01T11:00:16.380Z,28.92
2023-05-01T11:02:44.914Z,27.16
2023-05-01T11:05:13.366Z,26.27
2023-05-01T11:07:42.453Z,25.68
2023-05-01T11:10:26.099Z,26.36
2023-05-01T11:12:56.964Z,26.64
2023-05-01T11:15:29.228Z,27.33
2023-05-01T11:17:58.603Z,27.02
2023-05-01T11:20:45.522Z,26.94
2023-05-01T11:23:18.301Z,27.30
2023-05-01T11:25:48.342Z,27.50
2023-05-01T11:28:23.082Z,28.01
2023-05-01T11:30:52.040Z,28.39
2023-05-01T11:33:26.108Z,29.29
2023-05-01T11:35:58.668Z,29.14
2023-05-01T11:38:27.306Z,29.13
2023-05-01T11:40:57.334Z,28.44
2023-05-01T11:43:27.797Z,27.19
2023-05-01T11:46:02.268Z,26.80
2023-05-01T11:48:32.255Z,25.78
2023-05-01T11:51:00.766Z,25.11
2023-05-01T11:53:29.706Z,26.35
2023-05-01T11:55:59.751Z,28.06
2023-05-01T11:58:33.892Z,30.10
2023-05-01T12:01:03.267Z,29.52
2023-05-01T12:03:41.530Z,27.92
2023-05-01T12:06:11.135Z,26.49
2023-05-01T12:08:43.444Z,27.12
2023-05-01T12:11:12.474Z,26.61
2023-05-01T12:13:42.860Z,27.71
2023-05-01T12:16:11.499Z,29.49
2023-05-01T12:18:41.200Z,29.37
2023-05-01T12:21:16.031Z,28.71
2023-05-01T12:23:44.687Z,29.19
2023-05-01T12:26:17.065Z,27.78
2023-05-01T12:28:56.224Z,27.01
2023-05-01T12:31:25.288Z,27.24
2023-05-01T12:33:54.842Z,26.14
2023-05-01T12:36:25.821Z,25.15
2023-05-01T12:39:00.725Z,24.48
2023-05-01T12:41:38.896Z,23.91
2023-05-01T12:44:25.125Z,23.74
2023-05-01T12:46:58.779Z,23.83
2023-05-01T12:49:27.945Z,24.21
2023-05-01T12:51:57.249Z,23.73
2023-05-01T12:54:26.355Z,22.78
2023-05-01T12:56:54.763Z,22.70
2023-05-01T12:59:25.513Z,22.55
2023-05-01T13:02:01.458Z,22.59
2023-05-01T13:04:32.654Z,22.91
2023-05-01T13:07:03.578Z,23.70
2023-05-01T13:09:32.629Z,24.47
2023-05-01T13:12:05.036Z,24.86
2023-05-01T13:14:39.115Z,24.63
2023-05-01T13:17:09.502Z,24.78
2023-05-01T13:19:58.582Z,24.81
2023-05-01T13:22:32.681Z,24.89
2023-05-01T13:25:03.226Z,25.01
2023-05-01T13:27:31.926Z,24.75
2023-05-01T13:30:04.026Z,24.59
2023-05-01T13:32:35.383Z,25.39
2023-05-01T13:35:04.645Z,25.69
2023-05-01T13:37:38.402Z,25.12
2023-05-01T13:40:08.494Z,24.37
2023-05-01T13:42:37.635Z,24.15
2023-05-01T13:45:08.351Z,23.94
2023-05-01T13:47:39.651Z,23.72
2023-05-01T13:50:10.406Z,23.48
2023-05-01T13:52:42.306Z,23.26
2023-05-01T13:55:11.706Z,23.18
2023-05-01T13:57:42.259Z,23.18
2023-05-01T14:00:19.517Z,23.15
2023-05-01T14:02:49.714Z,22.91
2023-05-01T14:05:24.397Z,22.70
2023-05-01T14:07:55.308Z,22.59
2023-05-01T14:10:45.761Z,22.33
2023-05-01T14:13:17.974Z,22.12
2023-05-01T14:15:49.430Z,21.85
2023-05-01T14:18:24.210Z,21.50
2023-05-01T14:21:00.156Z,21.19
2023-05-01T14:23:29.009Z,21.03
2023-05-01T14:25:59.127Z,20.86
2023-05-01T14:28:27.863Z,20.71
2023-05-01T14:30:58.152Z,20.55
2023-05-01T14:33:27.527Z,20.37
2023-05-01T14:35:56.774Z,20.22
2023-05-01T14:38:26.702Z,19.79
2023-05-01T14:40:55.662Z,19.52
2023-05-01T14:43:24.531Z,19.38
2023-05-01T14:45:53.490Z,19.32
2023-05-01T14:48:30.383Z,19.20
2023-05-01T14:50:59.470Z,18.95
2023-05-01T14:53:32.646Z,18.76
2023-05-01T14:56:01.494Z,18.69
2023-05-01T14:58:29.786Z,18.78
2023-05-01T15:00:58.539Z,18.79
2023-05-01T15:03:28.732Z,18.82
2023-05-01T15:06:00.877Z,18.74
2023-05-01T15:08:30.400Z,18.77
2023-05-01T15:10:59.011Z,18.71
2023-05-01T15:13:27.708Z,18.52
2023-05-01T15:15:57.376Z,18.39
2023-05-01T15:18:26.577Z,18.44
2023-05-01T15:20:57.987Z,18.31
2023-05-01T15:23:31.391Z,18.18
2023-05-01T15:26:00.934Z,17.93
2023-05-01T15:28:30.215Z,17.80
2023-05-01T15:30:58.788Z,17.50
2023-05-01T15:33:27.342Z,17.10
2023-05-01T15:36:08.204Z,16.92
2023-05-01T15:38:43.178Z,16.77
2023-05-01T15:41:18.312Z,16.37
2023-05-01T15:44:12.102Z,16.23
2023-05-01T15:46:47.412Z,15.99
2023-05-01T15:49:16.020Z,15.81
2023-05-01T15:51:45.733Z,15.72
2023-05-01T15:54:17.419Z,15.60
2023-05-01T15:56:46.650Z,15.66
2023-05-01T15:59:15.170Z,15.70
2023-05-01T16:01:43.676Z,15.79
2023-05-01T16:04:12.318Z,15.88
2023-05-01T16:06:42.037Z,16.12
2023-05-01T16:09:12.246Z,16.11
2023-05-01T16:11:40.587Z,16.24
2023-05-01T16:14:09.861Z,16.33
2023-05-01T16:16:39.733Z,16.55
2023-05-01T16:19:08.599Z,16.66
2023-05-01T16:21:37.914Z,16.86
2023-05-01T16:24:07.187Z,16.96
2023-05-01T16:26:36.958Z,17.14
2023-05-01T16:29:06.927Z,17.45
2023-05-01T16:31:53.882Z,17.74
2023-05-01T16:34:27.481Z,18.03
2023-05-01T16:36:56.482Z,17.89
2023-05-01T16:39:25.431Z,17.87
2023-05-01T16:42:01.962Z,17.83
2023-05-01T16:44:36.701Z,18.03
2023-05-01T16:47:11.760Z,18.11
2023-05-01T16:49:41.761Z,18.40
2023-05-01T16:52:14.220Z,18.49
2023-05-01T16:54:46.505Z,18.38
2023-05-01T16:57:17.465Z,18.38
2023-05-01T16:59:46.205Z,17.97
2023-05-01T17:02:14.851Z,17.70
2023-05-01T17:04:43.663Z,17.54
2023-05-01T17:07:14.778Z,17.39
2023-05-01T17:09:43.600Z,17.16
2023-05-01T17:12:13.226Z,17.18
2023-05-01T17:14:44.726Z,17.12
2023-05-01T17:17:17.753Z,17.03
2023-05-01T17:19:46.331Z,17.03
2023-05-01T17:22:15.159Z,17.05
2023-05-01T17:24:43.460Z,17.08
2023-05-01T17:27:12.328Z,17.00
2023-05-01T17:29:41.507Z,17.02
2023-05-01T17:32:16.022Z,16.99
2023-05-01T17:34:54.622Z,17.09
2023-05-01T17:37:22.815Z,17.11
2023-05-01T17:39:51.161Z,17.05
2023-05-01T17:42:19.692Z,17.13
2023-05-01T17:44:48.005Z,17.02
2023-05-01T17:47:18.090Z,16.96
2023-05-01T17:49:46.787Z,16.96
2023-05-01T17:52:16.025Z,16.93
2023-05-01T17:54:45.563Z,16.94
2023-05-01T17:57:14.076Z,16.92
2023-05-01T17:59:42.677Z,16.82
2023-05-01T18:02:11.311Z,16.75
2023-05-01T18:04:41.269Z,16.69
2023-05-01T18:07:09.789Z,16.63
2023-05-01T18:09:38.440Z,16.60
2023-05-01T18:12:07.097Z,16.51
2023-05-01T18:14:36.083Z,16.42
2023-05-01T18:17:04.519Z,16.32
2023-05-01T18:19:32.931Z,16.22
2023-05-01T18:22:04.142Z,16.15
2023-05-01T18:24:32.783Z,16.02
2023-05-01T18:27:01.051Z,15.94
2023-05-01T18:29:29.421Z,15.80
2023-05-01T18:31:58.415Z,15.73
2023-05-01T18:34:52.473Z,15.68
2023-05-01T18:37:23.155Z,15.47
2023-05-01T18:39:51.912Z,15.30
2023-05-01T18:42:41.366Z,15.16
2023-05-01T18:45:14.204Z,15.05
2023-05-01T18:47:45.543Z,14.87
2023-05-01T18:50:14.533Z,14.73
2023-05-01T18:52:44.226Z,14.67
2023-05-01T18:55:12.803Z,14.57
2023-05-01T18:57:43.642Z,14.51
2023-05-01T19:00:16.647Z,14.54
2023-05-01T19:02:51.299Z,14.37
2023-05-01T19:05:20.373Z,14.27
2023-05-01T19:07:50.213Z,14.21
2023-05-01T19:10:18.814Z,14.11
2023-05-01T19:12:47.194Z,14.12
2023-05-01T19:15:15.788Z,14.08
2023-05-01T19:17:44.195Z,14.01
2023-05-01T19:20:25.559Z,14.16
2023-05-01T19:22:55.381Z,14.23
2023-05-01T19:25:23.748Z,14.23
2023-05-01T19:27:52.056Z,14.32
2023-05-01T19:30:20.402Z,14.32
2023-05-01T19:32:48.848Z,14.36
2023-05-01T19:35:17.557Z,14.37
2023-05-01T19:37:46.130Z,14.52
2023-05-01T19:40:16.972Z,14.48
2023-05-01T19:42:46.753Z,14.43
2023-05-01T19:45:17.721Z,14.40
2023-05-01T19:47:46.673Z,14.37
2023-05-01T19:50:18.927Z,14.31
2023-05-01T19:52:48.110Z,14.28
2023-05-01T19:55:19.441Z,14.25
2023-05-01T19:57:47.925Z,14.21
2023-05-01T20:00:17.318Z,14.21
2023-05-01T20:02:47.774Z,14.24
2023-05-01T20:05:16.990Z,14.16
2023-05-01T20:07:49.379Z,14.04
2023-05-01T20:10:19.956Z,13.96
2023-05-01T20:12:49.125Z,13.83
2023-05-01T20:15:21.400Z,13.76
2023-05-01T20:17:51.130Z,13.61
2023-05-01T20:20:19.905Z,13.48
2023-05-01T20:22:48.546Z,13.41
2023-05-01T20:25:17.412Z,13.32
2023-05-01T20:27:47.571Z,13.23
2023-05-01T20:30:16.786Z,13.24
2023-05-01T20:32:45.572Z,13.15
2023-05-01T20:35:14.709Z,13.22
2023-05-01T20:37:44.266Z,13.15
2023-05-01T20:40:13.729Z,13.06
2023-05-01T20:42:42.953Z,12.95
2023-05-01T20:45:13.233Z,12.87
2023-05-01T20:47:42.009Z,12.79
2023-05-01T20:50:11.419Z,12.72
2023-05-01T20:52:40.375Z,12.63
2023-05-01T20:55:10.001Z,12.65
2023-05-01T20:57:38.321Z,12.61
2023-05-01T21:00:07.832Z,12.52
2023-05-01T21:02:39.409Z,12.50
2023-05-01T21:05:09.161Z,12.48
2023-05-01T21:07:38.437Z,12.48
2023-05-01T21:10:07.822Z,12.41
2023-05-01T21:12:36.669Z,12.42
2023-05-01T21:15:11.336Z,12.38
2023-05-01T21:17:43.527Z,12.35
2023-05-01T21:20:13.711Z,12.43
2023-05-01T21:22:45.788Z,12.28
2023-05-01T21:25:15.730Z,12.27
2023-05-01T21:27:44.574Z,12.17
2023-05-01T21:30:16.745Z,12.21
2023-05-01T21:32:47.480Z,12.20
2023-05-01T21:35:18.598Z,12.14
2023-05-01T21:37:51.551Z,12.00
2023-05-01T21:40:23.087Z,11.95
2023-05-01T21:42:52.586Z,11.97
2023-05-01T21:45:21.593Z,12.17
2023-05-01T21:47:55.226Z,12.29
2023-05-01T21:50:23.888Z,12.33
2023-05-01T21:52:52.564Z,12.39
2023-05-01T21:55:22.885Z,12.43
2023-05-01T21:57:51.508Z,12.44
2023-05-01T22:00:20.988Z,12.41
2023-05-01T22:02:51.749Z,12.42
2023-05-01T22:05:22.481Z,12.36
2023-05-01T22:07:54.516Z,12.28
2023-05-01T22:10:24.562Z,12.22
2023-05-01T22:12:55.558Z,12.02
2023-05-01T22:15:24.812Z,12.03
2023-05-01T22:17:54.916Z,11.98
2023-05-01T22:20:23.281Z,11.90
2023-05-01T22:22:51.618Z,11.88
2023-05-01T22:25:20.030Z,11.85
2023-05-01T22:27:48.322Z,11.81
2023-05-01T22:30:16.617Z,11.85
2023-05-01T22:32:44.918Z,11.97
2023-05-01T22:35:15.084Z,11.98
2023-05-01T22:37:43.688Z,12.05
2023-05-01T22:40:12.445Z,12.05
2023-05-01T22:42:41.236Z,12.07
2023-05-01T22:45:10.013Z,12.09
2023-05-01T22:47:38.565Z,12.15
2023-05-01T22:50:07.478Z,12.20
2023-05-01T22:52:37.438Z,12.12
2023-05-01T22:55:06.376Z,12.06
2023-05-01T22:57:34.662Z,12.05
2023-05-01T23:00:03.310Z,12.00
2023-05-01T23:02:33.691Z,12.12
2023-05-01T23:05:02.236Z,12.08
2023-05-01T23:07:30.723Z,12.11
2023-05-01T23:10:02.353Z,12.23
2023-05-01T23:12:31.580Z,12.22
2023-05-01T23:14:59.943Z,12.32
2023-05-01T23:17:34.630Z,12.27
2023-05-01T23:20:03.308Z,12.18
2023-05-01T23:22:31.990Z,12.21
2023-05-01T23:25:02.350Z,12.23
2023-05-01T23:27:34.531Z,12.20
2023-05-01T23:30:05.960Z,12.21
2023-05-01T23:32:34.672Z,12.13
2023-05-01T23:35:04.629Z,12.04
2023-05-01T23:37:33.047Z,11.88
2023-05-01T23:40:03.045Z,11.78
2023-05-01T23:42:31.825Z,11.56
2023-05-01T23:45:00.451Z,11.40
2023-05-01T23:47:28.830Z,11.27
2023-05-01T23:49:57.570Z,11.17
2023-05-01T23:52:26.318Z,11.08
2023-05-01T23:54:54.715Z,10.99
2023-05-01T23:57:24.806Z,10.90
2023-05-01T23:59:53.630Z,10.91
